sensor_id;sensor_type;location;lat;lon;timestamp;temperature;humidity
73780;SHT30;62093;37.614;15.072;2023-03-31T00:00:51;16.48;58.19
73780;SHT30;62093;37.614;15.072;2023-03-31T00:03:17;16.45;57.99
73780;SHT30;62093;37.614;15.072;2023-03-31T00:05:47;16.48;57.89
73780;SHT30;62093;37.614;15.072;2023-03-31T00:11:01;16.46;58.10
73780;SHT30;62093;37.614;15.072;2023-03-31T00:13:29;16.46;58.10
73780;SHT30;62093;37.614;15.072;2023-03-31T00:15:57;16.46;58.18
73780;SHT30;62093;37.614;15.072;2023-03-31T00:18:23;16.45;58.08
73780;SHT30;62093;37.614;15.072;2023-03-31T00:20:51;16.45;58.18
73780;SHT30;62093;37.614;15.072;2023-03-31T00:23:17;16.46;58.17
73780;SHT30;62093;37.614;15.072;2023-03-31T00:25:53;16.43;58.02
73780;SHT30;62093;37.614;15.072;2023-03-31T00:28:19;16.42;58.00
73780;SHT30;62093;37.614;15.072;2023-03-31T00:30:45;16.45;58.04
73780;SHT30;62093;37.614;15.072;2023-03-31T00:33:12;16.42;58.07
73780;SHT30;62093;37.614;15.072;2023-03-31T00:35:38;16.43;58.02
73780;SHT30;62093;37.614;15.072;2023-03-31T00:38:05;16.42;58.21
73780;SHT30;62093;37.614;15.072;2023-03-31T00:40:34;16.42;58.02
73780;SHT30;62093;37.614;15.072;2023-03-31T00:43:00;16.41;58.12
73780;SHT30;62093;37.614;15.072;2023-03-31T00:45:29;16.41;58.11
73780;SHT30;62093;37.614;15.072;2023-03-31T00:47:58;16.42;58.04
73780;SHT30;62093;37.614;15.072;2023-03-31T00:50:28;16.39;58.07
73780;SHT30;62093;37.614;15.072;2023-03-31T00:53:01;16.41;58.01
73780;SHT30;62093;37.614;15.072;2023-03-31T00:55:50;16.38;58.14
73780;SHT30;62093;37.614;15.072;2023-03-31T00:58:19;16.38;58.13
73780;SHT30;62093;37.614;15.072;2023-03-31T01:00:46;16.38;58.07
73780;SHT30;62093;37.614;15.072;2023-03-31T01:03:12;16.36;58.08
73780;SHT30;62093;37.614;15.072;2023-03-31T01:05:43;16.38;58.07
73780;SHT30;62093;37.614;15.072;2023-03-31T01:08:10;16.38;58.01
73780;SHT30;62093;37.614;15.072;2023-03-31T01:10:40;16.38;58.18
73780;SHT30;62093;37.614;15.072;2023-03-31T01:13:10;16.38;57.98
73780;SHT30;62093;37.614;15.072;2023-03-31T01:15:37;16.36;58.11
73780;SHT30;62093;37.614;15.072;2023-03-31T01:18:04;16.35;58.16
73780;SHT30;62093;37.614;15.072;2023-03-31T01:40:53;16.35;58.07
73780;SHT30;62093;37.614;15.072;2023-03-31T01:43:28;16.33;58.12
73780;SHT30;62093;37.614;15.072;2023-03-31T01:49:06;16.30;58.12
73780;SHT30;62093;37.614;15.072;2023-03-31T01:57:30;16.32;58.33
73780;SHT30;62093;37.614;15.072;2023-03-31T02:00:05;16.30;58.06
73780;SHT30;62093;37.614;15.072;2023-03-31T02:02:56;16.32;58.07
73780;SHT30;62093;37.614;15.072;2023-03-31T02:05:27;16.30;58.07
73780;SHT30;62093;37.614;15.072;2023-03-31T02:07:58;16.29;58.07
73780;SHT30;62093;37.614;15.072;2023-03-31T02:10:28;16.30;58.05
73780;SHT30;62093;37.614;15.072;2023-03-31T02:12:59;16.29;58.12
73780;SHT30;62093;37.614;15.072;2023-03-31T02:15:29;16.28;58.03
73780;SHT30;62093;37.614;15.072;2023-03-31T02:17:59;16.29;58.14
73780;SHT30;62093;37.614;15.072;2023-03-31T02:20:28;16.28;58.26
73780;SHT30;62093;37.614;15.072;2023-03-31T02:22:57;16.28;58.09
73780;SHT30;62093;37.614;15.072;2023-03-31T02:25:28;16.29;58.11
73780;SHT30;62093;37.614;15.072;2023-03-31T02:27:59;16.28;58.12
73780;SHT30;62093;37.614;15.072;2023-03-31T02:30:31;16.26;57.96
73780;SHT30;62093;37.614;15.072;2023-03-31T02:32:58;16.29;58.15
73780;SHT30;62093;37.614;15.072;2023-03-31T02:35:24;16.28;58.13
73780;SHT30;62093;37.614;15.072;2023-03-31T02:37:51;16.28;58.09
73780;SHT30;62093;37.614;15.072;2023-03-31T02:40:20;16.26;58.14
73780;SHT30;62093;37.614;15.072;2023-03-31T02:42:47;16.29;58.30
73780;SHT30;62093;37.614;15.072;2023-03-31T02:45:52;16.28;58.06
73780;SHT30;62093;37.614;15.072;2023-03-31T02:48:28;16.25;58.12
73780;SHT30;62093;37.614;15.072;2023-03-31T02:59:23;16.26;58.26
73780;SHT30;62093;37.614;15.072;2023-03-31T03:11:03;16.28;58.24
73780;SHT30;62093;37.614;15.072;2023-03-31T03:13:51;16.25;58.30
73780;SHT30;62093;37.614;15.072;2023-03-31T03:16:26;16.23;58.22
73780;SHT30;62093;37.614;15.072;2023-03-31T03:19:01;16.25;58.14
73780;SHT30;62093;37.614;15.072;2023-03-31T03:21:28;16.23;58.17
73780;SHT30;62093;37.614;15.072;2023-03-31T03:23:54;16.22;58.21
73780;SHT30;62093;37.614;15.072;2023-03-31T03:26:21;16.23;58.10
73780;SHT30;62093;37.614;15.072;2023-03-31T03:28:51;16.25;58.22
73780;SHT30;62093;37.614;15.072;2023-03-31T03:31:18;16.23;58.21
73780;SHT30;62093;37.614;15.072;2023-03-31T03:33:44;16.22;58.13
73780;SHT30;62093;37.614;15.072;2023-03-31T03:36:11;16.22;58.34
73780;SHT30;62093;37.614;15.072;2023-03-31T03:38:37;16.22;58.21
73780;SHT30;62093;37.614;15.072;2023-03-31T03:41:03;16.23;58.14
73780;SHT30;62093;37.614;15.072;2023-03-31T03:43:29;16.25;58.39
73780;SHT30;62093;37.614;15.072;2023-03-31T03:45:55;16.22;58.28
73780;SHT30;62093;37.614;15.072;2023-03-31T03:48:21;16.23;58.17
73780;SHT30;62093;37.614;15.072;2023-03-31T03:50:46;16.21;58.18
73780;SHT30;62093;37.614;15.072;2023-03-31T03:53:13;16.21;58.30
73780;SHT30;62093;37.614;15.072;2023-03-31T03:55:39;16.19;58.34
73780;SHT30;62093;37.614;15.072;2023-03-31T03:58:05;16.21;58.35
73780;SHT30;62093;37.614;15.072;2023-03-31T04:00:31;16.19;58.38
73780;SHT30;62093;37.614;15.072;2023-03-31T04:02:57;16.19;58.23
73780;SHT30;62093;37.614;15.072;2023-03-31T04:05:23;16.18;58.34
73780;SHT30;62093;37.614;15.072;2023-03-31T04:07:49;16.19;58.30
73780;SHT30;62093;37.614;15.072;2023-03-31T04:10:15;16.18;58.34
73780;SHT30;62093;37.614;15.072;2023-03-31T04:12:41;16.16;58.29
73780;SHT30;62093;37.614;15.072;2023-03-31T04:15:07;16.18;58.31
73780;SHT30;62093;37.614;15.072;2023-03-31T04:17:33;16.18;58.37
73780;SHT30;62093;37.614;15.072;2023-03-31T04:20:00;16.22;58.26
73780;SHT30;62093;37.614;15.072;2023-03-31T04:22:29;16.21;58.31
73780;SHT30;62093;37.614;15.072;2023-03-31T04:25:03;16.18;58.37
73780;SHT30;62093;37.614;15.072;2023-03-31T04:27:29;16.21;58.31
73780;SHT30;62093;37.614;15.072;2023-03-31T04:29:58;16.19;58.25
73780;SHT30;62093;37.614;15.072;2023-03-31T04:32:24;16.18;58.16
73780;SHT30;62093;37.614;15.072;2023-03-31T04:34:49;16.18;58.12
73780;SHT30;62093;37.614;15.072;2023-03-31T04:37:16;16.21;58.43
73780;SHT30;62093;37.614;15.072;2023-03-31T04:39:42;16.19;58.13
73780;SHT30;62093;37.614;15.072;2023-03-31T04:42:11;16.19;57.85
73780;SHT30;62093;37.614;15.072;2023-03-31T04:44:37;16.21;58.10
73780;SHT30;62093;37.614;15.072;2023-03-31T04:47:03;16.21;57.81
73780;SHT30;62093;37.614;15.072;2023-03-31T04:49:31;16.22;57.96
73780;SHT30;62093;37.614;15.072;2023-03-31T04:51:58;16.16;57.53
73780;SHT30;62093;37.614;15.072;2023-03-31T04:54:23;16.19;57.96
73780;SHT30;62093;37.614;15.072;2023-03-31T04:56:49;16.21;57.70
73780;SHT30;62093;37.614;15.072;2023-03-31T04:59:15;16.21;57.87
73780;SHT30;62093;37.614;15.072;2023-03-31T05:01:41;16.21;57.74
73780;SHT30;62093;37.614;15.072;2023-03-31T05:04:09;16.18;57.68
73780;SHT30;62093;37.614;15.072;2023-03-31T05:06:35;16.18;57.77
73780;SHT30;62093;37.614;15.072;2023-03-31T05:09:01;16.15;57.86
73780;SHT30;62093;37.614;15.072;2023-03-31T05:11:27;16.18;58.20
73780;SHT30;62093;37.614;15.072;2023-03-31T05:13:53;16.19;58.22
73780;SHT30;62093;37.614;15.072;2023-03-31T05:16:19;16.19;57.79
73780;SHT30;62093;37.614;15.072;2023-03-31T05:18:45;16.16;58.04
73780;SHT30;62093;37.614;15.072;2023-03-31T05:21:14;16.11;57.87
73780;SHT30;62093;37.614;15.072;2023-03-31T05:23:40;16.18;57.99
73780;SHT30;62093;37.614;15.072;2023-03-31T05:26:07;16.15;57.94
73780;SHT30;62093;37.614;15.072;2023-03-31T05:28:34;16.15;58.08
73780;SHT30;62093;37.614;15.072;2023-03-31T05:31:01;16.12;57.91
73780;SHT30;62093;37.614;15.072;2023-03-31T05:33:28;16.12;58.10
73780;SHT30;62093;37.614;15.072;2023-03-31T05:35:54;16.11;58.00
73780;SHT30;62093;37.614;15.072;2023-03-31T05:38:20;16.12;58.11
73780;SHT30;62093;37.614;15.072;2023-03-31T05:40:46;16.13;58.45
73780;SHT30;62093;37.614;15.072;2023-03-31T05:43:12;16.13;58.13
73780;SHT30;62093;37.614;15.072;2023-03-31T05:45:38;16.15;58.29
73780;SHT30;62093;37.614;15.072;2023-03-31T05:48:04;16.15;58.11
73780;SHT30;62093;37.614;15.072;2023-03-31T05:50:30;16.13;58.14
73780;SHT30;62093;37.614;15.072;2023-03-31T05:52:56;16.13;58.52
73780;SHT30;62093;37.614;15.072;2023-03-31T05:55:22;16.15;58.33
73780;SHT30;62093;37.614;15.072;2023-03-31T05:57:48;16.16;58.33
73780;SHT30;62093;37.614;15.072;2023-03-31T06:00:14;16.18;58.37
73780;SHT30;62093;37.614;15.072;2023-03-31T06:02:40;16.19;58.39
73780;SHT30;62093;37.614;15.072;2023-03-31T06:05:06;16.19;58.42
73780;SHT30;62093;37.614;15.072;2023-03-31T06:07:32;16.23;58.52
73780;SHT30;62093;37.614;15.072;2023-03-31T06:09:58;16.23;58.28
73780;SHT30;62093;37.614;15.072;2023-03-31T06:12:23;16.23;58.36
73780;SHT30;62093;37.614;15.072;2023-03-31T06:14:49;16.23;58.38
73780;SHT30;62093;37.614;15.072;2023-03-31T06:17:15;16.26;58.38
73780;SHT30;62093;37.614;15.072;2023-03-31T06:19:41;16.26;58.50
73780;SHT30;62093;37.614;15.072;2023-03-31T06:22:07;16.29;58.41
73780;SHT30;62093;37.614;15.072;2023-03-31T06:24:33;16.28;58.43
73780;SHT30;62093;37.614;15.072;2023-03-31T06:26:58;16.30;58.45
73780;SHT30;62093;37.614;15.072;2023-03-31T06:29:26;16.30;58.49
73780;SHT30;62093;37.614;15.072;2023-03-31T06:31:52;16.32;58.42
73780;SHT30;62093;37.614;15.072;2023-03-31T06:34:18;16.35;58.43
73780;SHT30;62093;37.614;15.072;2023-03-31T06:36:43;16.36;58.45
73780;SHT30;62093;37.614;15.072;2023-03-31T06:39:09;16.35;58.42
73780;SHT30;62093;37.614;15.072;2023-03-31T06:41:35;16.36;58.41
73780;SHT30;62093;37.614;15.072;2023-03-31T06:44:01;16.41;58.38
73780;SHT30;62093;37.614;15.072;2023-03-31T06:46:27;16.41;58.43
73780;SHT30;62093;37.614;15.072;2023-03-31T06:48:53;16.39;58.37
73780;SHT30;62093;37.614;15.072;2023-03-31T06:51:19;16.43;58.43
73780;SHT30;62093;37.614;15.072;2023-03-31T06:53:45;16.45;58.43
73780;SHT30;62093;37.614;15.072;2023-03-31T06:56:11;16.45;58.49
73780;SHT30;62093;37.614;15.072;2023-03-31T06:58:37;16.43;58.37
73780;SHT30;62093;37.614;15.072;2023-03-31T07:01:04;16.46;58.35
73780;SHT30;62093;37.614;15.072;2023-03-31T07:03:31;16.48;58.28
73780;SHT30;62093;37.614;15.072;2023-03-31T07:05:57;16.49;58.09
73780;SHT30;62093;37.614;15.072;2023-03-31T07:08:23;16.49;58.13
73780;SHT30;62093;37.614;15.072;2023-03-31T07:10:58;16.52;58.16
73780;SHT30;62093;37.614;15.072;2023-03-31T07:13:25;16.55;58.10
73780;SHT30;62093;37.614;15.072;2023-03-31T07:15:51;16.52;58.11
73780;SHT30;62093;37.614;15.072;2023-03-31T07:18:18;16.53;58.12
73780;SHT30;62093;37.614;15.072;2023-03-31T07:20:47;16.57;58.14
73780;SHT30;62093;37.614;15.072;2023-03-31T07:23:13;16.57;58.08
73780;SHT30;62093;37.614;15.072;2023-03-31T07:25:38;16.60;58.13
73780;SHT30;62093;37.614;15.072;2023-03-31T07:28:04;16.62;58.08
73780;SHT30;62093;37.614;15.072;2023-03-31T07:30:31;16.60;58.00
73780;SHT30;62093;37.614;15.072;2023-03-31T07:32:57;16.66;58.07
73780;SHT30;62093;37.614;15.072;2023-03-31T07:35:23;16.63;58.01
73780;SHT30;62093;37.614;15.072;2023-03-31T07:37:50;16.64;57.98
73780;SHT30;62093;37.614;15.072;2023-03-31T07:40:23;16.69;57.91
73780;SHT30;62093;37.614;15.072;2023-03-31T07:42:50;16.66;57.99
73780;SHT30;62093;37.614;15.072;2023-03-31T07:45:18;16.70;57.93
73780;SHT30;62093;37.614;15.072;2023-03-31T07:47:44;16.72;57.92
73780;SHT30;62093;37.614;15.072;2023-03-31T07:50:12;16.70;57.86
73780;SHT30;62093;37.614;15.072;2023-03-31T07:52:38;16.72;57.87
73780;SHT30;62093;37.614;15.072;2023-03-31T07:55:05;16.70;57.83
73780;SHT30;62093;37.614;15.072;2023-03-31T07:57:32;16.70;57.91
73780;SHT30;62093;37.614;15.072;2023-03-31T07:59:58;16.73;57.84
73780;SHT30;62093;37.614;15.072;2023-03-31T08:02:24;16.73;57.90
73780;SHT30;62093;37.614;15.072;2023-03-31T08:04:50;16.74;57.80
73780;SHT30;62093;37.614;15.072;2023-03-31T08:07:16;16.76;57.85
73780;SHT30;62093;37.614;15.072;2023-03-31T08:09:44;16.77;57.78
73780;SHT30;62093;37.614;15.072;2023-03-31T08:12:10;16.76;57.87
73780;SHT30;62093;37.614;15.072;2023-03-31T08:14:36;16.79;57.88
73780;SHT30;62093;37.614;15.072;2023-03-31T08:17:02;16.76;57.87
73780;SHT30;62093;37.614;15.072;2023-03-31T08:19:28;16.77;57.91
73780;SHT30;62093;37.614;15.072;2023-03-31T08:21:54;16.77;57.84
73780;SHT30;62093;37.614;15.072;2023-03-31T08:24:20;16.80;57.85
73780;SHT30;62093;37.614;15.072;2023-03-31T08:26:46;16.80;57.80
73780;SHT30;62093;37.614;15.072;2023-03-31T08:29:12;16.80;57.88
73780;SHT30;62093;37.614;15.072;2023-03-31T08:31:38;16.81;57.81
73780;SHT30;62093;37.614;15.072;2023-03-31T08:34:04;16.81;57.83
73780;SHT30;62093;37.614;15.072;2023-03-31T08:36:30;16.83;57.82
73780;SHT30;62093;37.614;15.072;2023-03-31T08:38:56;16.85;57.82
73780;SHT30;62093;37.614;15.072;2023-03-31T08:41:27;16.85;57.78
73780;SHT30;62093;37.614;15.072;2023-03-31T08:43:59;16.84;57.78
73780;SHT30;62093;37.614;15.072;2023-03-31T08:46:28;16.85;57.80
73780;SHT30;62093;37.614;15.072;2023-03-31T08:48:56;16.87;57.70
73780;SHT30;62093;37.614;15.072;2023-03-31T08:51:44;16.88;57.74
73780;SHT30;62093;37.614;15.072;2023-03-31T08:54:16;16.88;57.73
73780;SHT30;62093;37.614;15.072;2023-03-31T08:56:46;16.90;57.68
73780;SHT30;62093;37.614;15.072;2023-03-31T08:59:30;16.93;57.60
73780;SHT30;62093;37.614;15.072;2023-03-31T09:11:25;16.97;57.52
73780;SHT30;62093;37.614;15.072;2023-03-31T09:16:29;16.99;57.45
73780;SHT30;62093;37.614;15.072;2023-03-31T09:18:59;17.00;57.47
73780;SHT30;62093;37.614;15.072;2023-03-31T09:21:39;17.00;57.43
73780;SHT30;62093;37.614;15.072;2023-03-31T09:24:25;17.01;57.40
73780;SHT30;62093;37.614;15.072;2023-03-31T09:27:06;17.00;57.36
73780;SHT30;62093;37.614;15.072;2023-03-31T09:29:50;17.04;57.38
73780;SHT30;62093;37.614;15.072;2023-03-31T09:32:23;17.04;57.37
73780;SHT30;62093;37.614;15.072;2023-03-31T09:34:52;17.07;57.31
73780;SHT30;62093;37.614;15.072;2023-03-31T09:37:22;17.03;57.35
73780;SHT30;62093;37.614;15.072;2023-03-31T09:39:49;17.06;57.38
73780;SHT30;62093;37.614;15.072;2023-03-31T09:42:15;17.06;57.36
73780;SHT30;62093;37.614;15.072;2023-03-31T09:44:47;17.10;57.33
73780;SHT30;62093;37.614;15.072;2023-03-31T09:47:38;17.08;57.29
73780;SHT30;62093;37.614;15.072;2023-03-31T09:50:06;17.08;57.33
73780;SHT30;62093;37.614;15.072;2023-03-31T09:52:36;17.14;57.29
73780;SHT30;62093;37.614;15.072;2023-03-31T09:57:48;17.13;57.26
73780;SHT30;62093;37.614;15.072;2023-03-31T10:00:18;17.14;57.32
73780;SHT30;62093;37.614;15.072;2023-03-31T10:02:49;17.14;57.31
73780;SHT30;62093;37.614;15.072;2023-03-31T10:05:26;17.15;57.31
73780;SHT30;62093;37.614;15.072;2023-03-31T10:08:21;17.15;57.24
73780;SHT30;62093;37.614;15.072;2023-03-31T10:10:52;17.20;57.22
73780;SHT30;62093;37.614;15.072;2023-03-31T10:16:12;17.18;57.23
73780;SHT30;62093;37.614;15.072;2023-03-31T10:18:41;17.23;57.20
73780;SHT30;62093;37.614;15.072;2023-03-31T10:21:19;17.23;57.22
73780;SHT30;62093;37.614;15.072;2023-03-31T10:23:46;17.23;57.14
73780;SHT30;62093;37.614;15.072;2023-03-31T10:26:16;17.24;57.16
73780;SHT30;62093;37.614;15.072;2023-03-31T10:28:43;17.25;57.16
73780;SHT30;62093;37.614;15.072;2023-03-31T10:31:09;17.28;57.09
73780;SHT30;62093;37.614;15.072;2023-03-31T10:33:40;17.28;56.99
73780;SHT30;62093;37.614;15.072;2023-03-31T10:36:26;17.31;56.91
73780;SHT30;62093;37.614;15.072;2023-03-31T10:38:55;17.32;56.94
73780;SHT30;62093;37.614;15.072;2023-03-31T10:41:27;17.35;56.98
73780;SHT30;62093;37.614;15.072;2023-03-31T10:43:54;17.36;56.93
73780;SHT30;62093;37.614;15.072;2023-03-31T10:46:20;17.38;56.66
73780;SHT30;62093;37.614;15.072;2023-03-31T10:51:56;17.39;56.75
73780;SHT30;62093;37.614;15.072;2023-03-31T10:54:22;17.42;56.75
73780;SHT30;62093;37.614;15.072;2023-03-31T10:56:51;17.42;56.71
73780;SHT30;62093;37.614;15.072;2023-03-31T11:02:19;17.45;56.71
73780;SHT30;62093;37.614;15.072;2023-03-31T11:10:21;17.48;56.60
73780;SHT30;62093;37.614;15.072;2023-03-31T11:15:35;17.51;56.48
73780;SHT30;62093;37.614;15.072;2023-03-31T11:23:41;17.55;56.37
73780;SHT30;62093;37.614;15.072;2023-03-31T11:29:31;17.59;56.33
73780;SHT30;62093;37.614;15.072;2023-03-31T11:37:56;17.59;56.20
73780;SHT30;62093;37.614;15.072;2023-03-31T11:46:14;17.65;56.07
73780;SHT30;62093;37.614;15.072;2023-03-31T11:48:52;17.65;56.06
73780;SHT30;62093;37.614;15.072;2023-03-31T11:51:28;17.68;55.99
73780;SHT30;62093;37.614;15.072;2023-03-31T11:53:57;17.68;55.95
73780;SHT30;62093;37.614;15.072;2023-03-31T11:56:37;17.69;55.94
73780;SHT30;62093;37.614;15.072;2023-03-31T11:59:05;17.71;55.92
73780;SHT30;62093;37.614;15.072;2023-03-31T12:01:50;17.72;55.91
73780;SHT30;62093;37.614;15.072;2023-03-31T12:07:11;17.76;55.85
73780;SHT30;62093;37.614;15.072;2023-03-31T12:12:34;17.79;55.78
73780;SHT30;62093;37.614;15.072;2023-03-31T12:15:21;17.75;55.74
73780;SHT30;62093;37.614;15.072;2023-03-31T12:18:12;17.78;55.70
73780;SHT30;62093;37.614;15.072;2023-03-31T12:20:42;17.79;55.66
73780;SHT30;62093;37.614;15.072;2023-03-31T12:23:15;17.81;55.62
73780;SHT30;62093;37.614;15.072;2023-03-31T12:28:20;17.82;55.61
73780;SHT30;62093;37.614;15.072;2023-03-31T12:30:47;17.85;55.50
73780;SHT30;62093;37.614;15.072;2023-03-31T12:33:25;17.86;55.55
73780;SHT30;62093;37.614;15.072;2023-03-31T12:36:14;17.86;55.51
73780;SHT30;62093;37.614;15.072;2023-03-31T12:41:46;17.86;55.46
73780;SHT30;62093;37.614;15.072;2023-03-31T12:55:54;17.92;55.28
73780;SHT30;62093;37.614;15.072;2023-03-31T13:03:35;17.92;55.23
73780;SHT30;62093;37.614;15.072;2023-03-31T13:06:02;17.96;55.19
73780;SHT30;62093;37.614;15.072;2023-03-31T13:08:57;17.97;55.16
73780;SHT30;62093;37.614;15.072;2023-03-31T13:14:18;17.97;55.15
73780;SHT30;62093;37.614;15.072;2023-03-31T13:16:44;18.00;55.10
73780;SHT30;62093;37.614;15.072;2023-03-31T13:19:30;17.99;55.06
73780;SHT30;62093;37.614;15.072;2023-03-31T13:22:03;17.99;55.04
73780;SHT30;62093;37.614;15.072;2023-03-31T13:24:30;18.02;55.00
73780;SHT30;62093;37.614;15.072;2023-03-31T13:27:00;18.03;54.96
73780;SHT30;62093;37.614;15.072;2023-03-31T13:29:44;18.03;54.95
73780;SHT30;62093;37.614;15.072;2023-03-31T13:32:20;18.06;54.93
73780;SHT30;62093;37.614;15.072;2023-03-31T13:35:03;18.04;54.99
73780;SHT30;62093;37.614;15.072;2023-03-31T13:37:44;18.06;54.91
73780;SHT30;62093;37.614;15.072;2023-03-31T13:48:35;18.10;54.87
73780;SHT30;62093;37.614;15.072;2023-03-31T13:51:47;18.09;54.80
73780;SHT30;62093;37.614;15.072;2023-03-31T13:54:44;18.10;54.79
73780;SHT30;62093;37.614;15.072;2023-03-31T13:57:41;18.13;54.73
73780;SHT30;62093;37.614;15.072;2023-03-31T14:11:25;18.18;54.61
73780;SHT30;62093;37.614;15.072;2023-03-31T14:16:25;18.22;54.52
73780;SHT30;62093;37.614;15.072;2023-03-31T14:18:54;18.22;54.38
73780;SHT30;62093;37.614;15.072;2023-03-31T14:29:30;18.26;54.40
73780;SHT30;62093;37.614;15.072;2023-03-31T14:37:52;18.29;54.36
73780;SHT30;62093;37.614;15.072;2023-03-31T14:40:19;18.29;54.26
73780;SHT30;62093;37.614;15.072;2023-03-31T14:42:45;18.32;54.27
73780;SHT30;62093;37.614;15.072;2023-03-31T14:45:20;18.32;54.19
73780;SHT30;62093;37.614;15.072;2023-03-31T14:47:57;18.33;54.31
73780;SHT30;62093;37.614;15.072;2023-03-31T14:50:33;18.36;54.31
73780;SHT30;62093;37.614;15.072;2023-03-31T14:52:59;18.34;54.17
73780;SHT30;62093;37.614;15.072;2023-03-31T14:55:31;18.33;54.23
73780;SHT30;62093;37.614;15.072;2023-03-31T14:58:00;18.37;54.18
73780;SHT30;62093;37.614;15.072;2023-03-31T15:00:31;18.36;54.18
73780;SHT30;62093;37.614;15.072;2023-03-31T15:02:59;18.38;54.13
73780;SHT30;62093;37.614;15.072;2023-03-31T15:05:32;18.37;54.14
73780;SHT30;62093;37.614;15.072;2023-03-31T15:08:01;18.40;54.13
73780;SHT30;62093;37.614;15.072;2023-03-31T15:10:34;18.40;54.17
73780;SHT30;62093;37.614;15.072;2023-03-31T15:13:09;18.38;54.11
73780;SHT30;62093;37.614;15.072;2023-03-31T15:15:36;18.41;54.09
73780;SHT30;62093;37.614;15.072;2023-03-31T15:18:02;18.43;54.06
73780;SHT30;62093;37.614;15.072;2023-03-31T15:20:33;18.41;54.04
73780;SHT30;62093;37.614;15.072;2023-03-31T15:22:59;18.40;54.10
73780;SHT30;62093;37.614;15.072;2023-03-31T15:25:34;18.43;54.14
73780;SHT30;62093;37.614;15.072;2023-03-31T15:28:05;18.44;54.18
73780;SHT30;62093;37.614;15.072;2023-03-31T15:30:31;18.45;54.10
73780;SHT30;62093;37.614;15.072;2023-03-31T15:32:58;18.41;54.10
73780;SHT30;62093;37.614;15.072;2023-03-31T15:35:31;18.44;54.06
73780;SHT30;62093;37.614;15.072;2023-03-31T15:37:58;18.44;54.15
73780;SHT30;62093;37.614;15.072;2023-03-31T15:40:30;18.44;54.11
73780;SHT30;62093;37.614;15.072;2023-03-31T15:43:02;18.38;54.19
73780;SHT30;62093;37.614;15.072;2023-03-31T15:45:53;18.43;54.13
73780;SHT30;62093;37.614;15.072;2023-03-31T15:48:27;18.41;54.20
73780;SHT30;62093;37.614;15.072;2023-03-31T15:51:03;18.41;54.17
73780;SHT30;62093;37.614;15.072;2023-03-31T15:53:37;18.40;54.21
73780;SHT30;62093;37.614;15.072;2023-03-31T15:56:43;18.40;54.22
73780;SHT30;62093;37.614;15.072;2023-03-31T16:01:48;18.40;54.20
73780;SHT30;62093;37.614;15.072;2023-03-31T16:04:14;18.40;54.26
73780;SHT30;62093;37.614;15.072;2023-03-31T16:07:02;18.37;54.26
73780;SHT30;62093;37.614;15.072;2023-03-31T16:12:22;18.37;54.27
73780;SHT30;62093;37.614;15.072;2023-03-31T16:14:58;18.36;54.30
73780;SHT30;62093;37.614;15.072;2023-03-31T16:17:30;18.36;54.27
73780;SHT30;62093;37.614;15.072;2023-03-31T16:20:02;18.34;54.33
73780;SHT30;62093;37.614;15.072;2023-03-31T16:22:40;18.36;54.34
73780;SHT30;62093;37.614;15.072;2023-03-31T16:25:10;18.34;54.34
73780;SHT30;62093;37.614;15.072;2023-03-31T16:27:39;18.34;54.34
73780;SHT30;62093;37.614;15.072;2023-03-31T16:30:13;18.36;54.34
73780;SHT30;62093;37.614;15.072;2023-03-31T16:33:04;18.32;54.37
73780;SHT30;62093;37.614;15.072;2023-03-31T16:35:42;18.33;54.34
73780;SHT30;62093;37.614;15.072;2023-03-31T16:38:10;18.32;54.36
73780;SHT30;62093;37.614;15.072;2023-03-31T16:40:48;18.33;54.38
73780;SHT30;62093;37.614;15.072;2023-03-31T16:45:43;18.32;54.39
73780;SHT30;62093;37.614;15.072;2023-03-31T16:48:10;18.32;54.43
73780;SHT30;62093;37.614;15.072;2023-03-31T16:50:36;18.29;54.41
73780;SHT30;62093;37.614;15.072;2023-03-31T16:53:02;18.30;54.44
73780;SHT30;62093;37.614;15.072;2023-03-31T16:55:29;18.29;54.39
73780;SHT30;62093;37.614;15.072;2023-03-31T16:57:57;18.29;54.47
73780;SHT30;62093;37.614;15.072;2023-03-31T17:00:31;18.30;54.50
73780;SHT30;62093;37.614;15.072;2023-03-31T17:02:58;18.29;54.57
73780;SHT30;62093;37.614;15.072;2023-03-31T17:05:27;18.30;54.58
73780;SHT30;62093;37.614;15.072;2023-03-31T17:07:53;18.33;54.67
73780;SHT30;62093;37.614;15.072;2023-03-31T17:10:19;18.29;52.84
73780;SHT30;62093;37.614;15.072;2023-03-31T17:12:46;18.23;49.85
73780;SHT30;62093;37.614;15.072;2023-03-31T17:15:12;18.22;51.22
73780;SHT30;62093;37.614;15.072;2023-03-31T17:17:38;18.20;50.25
73780;SHT30;62093;37.614;15.072;2023-03-31T17:20:04;18.20;50.73
73780;SHT30;62093;37.614;15.072;2023-03-31T17:22:32;18.24;52.27
73780;SHT30;62093;37.614;15.072;2023-03-31T17:24:58;18.30;51.77
73780;SHT30;62093;37.614;15.072;2023-03-31T17:27:24;18.27;51.43
73780;SHT30;62093;37.614;15.072;2023-03-31T17:29:50;18.30;51.19
73780;SHT30;62093;37.614;15.072;2023-03-31T17:32:16;18.32;52.04
73780;SHT30;62093;37.614;15.072;2023-03-31T17:34:43;18.29;51.99
73780;SHT30;62093;37.614;15.072;2023-03-31T17:37:09;18.30;52.81
73780;SHT30;62093;37.614;15.072;2023-03-31T17:39:35;18.32;52.81
73780;SHT30;62093;37.614;15.072;2023-03-31T17:42:01;18.30;53.12
73780;SHT30;62093;37.614;15.072;2023-03-31T17:44:28;18.32;52.75
73780;SHT30;62093;37.614;15.072;2023-03-31T17:46:54;18.32;52.62
73780;SHT30;62093;37.614;15.072;2023-03-31T17:49:20;18.29;52.72
73780;SHT30;62093;37.614;15.072;2023-03-31T17:51:46;18.29;52.65
73780;SHT30;62093;37.614;15.072;2023-03-31T17:54:12;18.29;52.36
73780;SHT30;62093;37.614;15.072;2023-03-31T17:56:38;18.26;51.95
73780;SHT30;62093;37.614;15.072;2023-03-31T17:59:04;18.22;50.39
73780;SHT30;62093;37.614;15.072;2023-03-31T18:01:30;18.22;49.24
73780;SHT30;62093;37.614;15.072;2023-03-31T18:03:56;18.18;51.04
73780;SHT30;62093;37.614;15.072;2023-03-31T18:06:22;18.17;49.60
73780;SHT30;62093;37.614;15.072;2023-03-31T18:08:49;18.10;47.34
73780;SHT30;62093;37.614;15.072;2023-03-31T18:11:15;18.10;46.99
73780;SHT30;62093;37.614;15.072;2023-03-31T18:13:42;18.10;49.03
73780;SHT30;62093;37.614;15.072;2023-03-31T18:16:08;18.07;48.36
73780;SHT30;62093;37.614;15.072;2023-03-31T18:18:36;18.07;47.09
73780;SHT30;62093;37.614;15.072;2023-03-31T18:21:06;18.06;45.20
73780;SHT30;62093;37.614;15.072;2023-03-31T18:23:33;18.04;46.70
73780;SHT30;62093;37.614;15.072;2023-03-31T18:26:00;18.00;46.23
73780;SHT30;62093;37.614;15.072;2023-03-31T18:28:26;18.04;46.83